createdAt,value
2022-08-03T00:02:16.708Z,10.32
2022-08-03T00:04:44.988Z,11.63
2022-08-03T00:07:14.510Z,16.65
2022-08-03T00:09:42.624Z,13.32
2022-08-03T00:12:11.415Z,11.30
2022-08-03T00:14:39.432Z,8.70
2022-08-03T00:17:07.372Z,9.40
2022-08-03T00:19:35.606Z,10.35
2022-08-03T00:22:03.857Z,9.07
2022-08-03T00:24:33.973Z,9.73
2022-08-03T00:27:02.643Z,9.45
2022-08-03T00:29:30.757Z,5.70
2022-08-03T00:32:00.184Z,12.65
2022-08-03T00:34:29.895Z,4.25
2022-08-03T00:37:17.296Z,8.25
2022-08-03T00:39:48.170Z,13.68
2022-08-03T00:42:16.982Z,12.07
2022-08-03T00:44:46.342Z,11.15
2022-08-03T00:47:14.440Z,11.32
2022-08-03T00:49:43.113Z,10.68
2022-08-03T00:52:12.312Z,9.30
2022-08-03T00:54:40.475Z,12.95
2022-08-03T00:57:10.378Z,10.15
2022-08-03T00:59:39.666Z,9.38
2022-08-03T01:02:08.055Z,9.80
2022-08-03T01:04:36.588Z,11.02
2022-08-03T01:07:10.716Z,11.82
2022-08-03T01:09:45.132Z,9.00
2022-08-03T01:12:18.613Z,6.65
2022-08-03T01:14:53.093Z,8.77
2022-08-03T01:17:24.824Z,10.80
2022-08-03T01:19:57.914Z,8.57
2022-08-03T01:22:41.642Z,9.60
2022-08-03T01:25:17.096Z,13.20
2022-08-03T01:27:56.185Z,14.05
2022-08-03T01:30:28.221Z,12.43
2022-08-03T01:33:02.117Z,14.93
2022-08-03T01:35:38.799Z,8.43
2022-08-03T01:38:12.920Z,16.10
2022-08-03T01:40:42.597Z,9.20
2022-08-03T01:43:15.615Z,12.68
2022-08-03T01:46:05.746Z,12.10
2022-08-03T01:48:33.897Z,17.55
2022-08-03T01:51:02.327Z,14.85
2022-08-03T01:53:31.373Z,14.60
2022-08-03T01:56:00.095Z,12.18
2022-08-03T01:58:30.409Z,10.93
2022-08-03T02:01:01.015Z,10.68
2022-08-03T02:03:35.699Z,10.90
2022-08-03T02:07:00.696Z,11.23
2022-08-03T02:08:52.674Z,15.10
2022-08-03T02:11:20.963Z,12.38
2022-08-03T02:13:49.940Z,19.17
2022-08-03T02:16:22.963Z,8.60
2022-08-03T02:19:13.005Z,21.00
2022-08-03T02:21:56.652Z,13.73
2022-08-03T02:24:29.803Z,12.68
2022-08-03T02:26:58.802Z,15.82
2022-08-03T02:29:39.824Z,16.20
2022-08-03T02:32:13.135Z,12.23
2022-08-03T02:34:46.646Z,15.02
2022-08-03T02:37:15.194Z,14.15
2022-08-03T02:39:43.875Z,14.82
2022-08-03T02:42:13.805Z,11.13
2022-08-03T02:44:47.749Z,16.17
2022-08-03T02:47:16.551Z,16.65
2022-08-03T02:49:51.433Z,12.85
2022-08-03T02:52:21.733Z,10.02
2022-08-03T02:54:52.226Z,13.85
2022-08-03T02:57:21.195Z,19.42
2022-08-03T02:59:49.596Z,17.10
2022-08-03T03:02:18.428Z,12.63
2022-08-03T03:05:01.364Z,12.93
2022-08-03T03:07:51.199Z,15.43
2022-08-03T03:10:21.091Z,12.00
2022-08-03T03:12:50.253Z,15.82
2022-08-03T03:15:18.886Z,15.77
2022-08-03T03:17:47.054Z,20.35
2022-08-03T03:20:16.477Z,13.60
2022-08-03T03:22:59.209Z,21.00
2022-08-03T03:25:27.752Z,10.68
2022-08-03T03:27:56.107Z,16.42
2022-08-03T03:30:26.407Z,12.82
2022-08-03T03:32:54.701Z,16.50
2022-08-03T03:35:24.078Z,20.35
2022-08-03T03:37:52.797Z,13.10
2022-08-03T03:40:20.900Z,14.95
2022-08-03T03:42:49.076Z,18.13
2022-08-03T03:45:17.365Z,17.48
2022-08-03T03:47:45.511Z,16.52
2022-08-03T03:50:13.686Z,17.70
2022-08-03T03:52:43.222Z,15.52
2022-08-03T03:55:11.314Z,19.98
2022-08-03T03:57:39.437Z,17.58
2022-08-03T04:00:08.957Z,21.67
2022-08-03T04:02:37.636Z,16.77
2022-08-03T04:05:24.722Z,20.95
2022-08-03T04:08:17.692Z,16.92
2022-08-03T04:11:06.819Z,15.70
2022-08-03T04:13:36.966Z,14.57
2022-08-03T04:16:05.785Z,17.80
2022-08-03T04:18:35.888Z,15.52
2022-08-03T04:21:06.707Z,20.40
2022-08-03T04:23:43.051Z,15.23
2022-08-03T04:26:14.710Z,19.73
2022-08-03T04:28:43.968Z,21.42
2022-08-03T04:31:12.152Z,16.88
2022-08-03T04:33:40.400Z,15.90
2022-08-03T04:36:14.354Z,18.05
2022-08-03T04:38:49.407Z,15.65
2022-08-03T04:41:17.991Z,21.48
2022-08-03T04:43:46.162Z,17.27
2022-08-03T04:46:14.658Z,17.15
2022-08-03T04:48:44.870Z,17.50
2022-08-03T04:51:13.386Z,21.92
2022-08-03T04:53:42.815Z,21.50
2022-08-03T04:56:11.093Z,13.93
2022-08-03T04:58:39.153Z,19.08
2022-08-03T05:01:07.487Z,15.82
2022-08-03T05:03:35.582Z,17.30
2022-08-03T05:06:10.944Z,23.42
2022-08-03T05:08:46.395Z,17.63
2022-08-03T05:11:16.787Z,17.67
2022-08-03T05:13:45.014Z,20.92
2022-08-03T05:16:13.737Z,24.92
2022-08-03T05:18:41.883Z,16.02
2022-08-03T05:21:14.089Z,18.65
2022-08-03T05:23:42.087Z,18.00
2022-08-03T05:26:11.696Z,16.27
2022-08-03T05:28:48.243Z,20.77
2022-08-03T05:31:19.828Z,21.75
2022-08-03T05:33:49.002Z,20.25
2022-08-03T05:36:17.296Z,21.27
2022-08-03T05:38:46.105Z,29.52
2022-08-03T05:41:22.169Z,18.00
2022-08-03T05:43:53.755Z,26.35
2022-08-03T05:46:22.412Z,17.67
2022-08-03T05:48:50.626Z,28.05
2022-08-03T05:51:18.802Z,30.63
2022-08-03T05:53:47.102Z,21.55
2022-08-03T05:56:16.718Z,27.98
2022-08-03T05:58:46.302Z,31.08
2022-08-03T06:01:16.033Z,28.08
2022-08-03T06:03:48.251Z,23.08
2022-08-03T06:06:16.377Z,20.73
2022-08-03T06:08:45.385Z,32.60
2022-08-03T06:11:13.802Z,25.15
2022-08-03T06:13:42.658Z,23.05
2022-08-03T06:16:10.703Z,23.17
2022-08-03T06:18:41.244Z,27.95
2022-08-03T06:21:15.291Z,28.88
2022-08-03T06:23:53.963Z,24.30
2022-08-03T06:26:27.942Z,26.52
2022-08-03T06:28:56.211Z,32.42
2022-08-03T06:31:26.280Z,25.88
2022-08-03T06:34:33.976Z,31.83
2022-08-03T06:36:53.012Z,22.33
2022-08-03T06:39:23.615Z,19.27
2022-08-03T06:41:53.426Z,27.95
2022-08-03T06:44:21.434Z,22.90
2022-08-03T06:46:49.735Z,29.42
2022-08-03T06:49:20.839Z,25.05
2022-08-03T06:52:03.717Z,26.60
2022-08-03T06:54:37.071Z,31.63
2022-08-03T06:57:06.101Z,27.77
2022-08-03T07:00:07.821Z,28.48
2022-08-03T07:02:22.085Z,24.95
2022-08-03T07:04:52.121Z,24.65
2022-08-03T07:07:20.602Z,30.67
2022-08-03T07:09:57.048Z,26.95
2022-08-03T07:12:27.328Z,28.10
2022-08-03T07:14:59.760Z,29.92
2022-08-03T07:17:28.792Z,24.73
2022-08-03T07:19:58.194Z,22.27
2022-08-03T07:22:26.227Z,27.73
2022-08-03T07:24:54.360Z,28.50
2022-08-03T07:27:22.632Z,29.58
2022-08-03T07:29:50.592Z,30.45
2022-08-03T07:32:19.097Z,29.38
2022-08-03T07:34:47.322Z,23.67
2022-08-03T07:37:16.843Z,30.13
2022-08-03T07:39:44.863Z,22.92
2022-08-03T07:42:13.140Z,29.15
2022-08-03T07:44:42.593Z,23.48
2022-08-03T07:47:10.712Z,23.30
2022-08-03T07:49:50.813Z,23.23
2022-08-03T07:52:38.250Z,21.73
2022-08-03T07:55:07.460Z,21.52
2022-08-03T07:57:37.348Z,25.10
2022-08-03T08:00:07.450Z,23.58
2022-08-03T08:02:36.015Z,24.83
2022-08-03T08:05:11.307Z,22.63
2022-08-03T08:10:10.901Z,24.42
2022-08-03T08:12:40.626Z,23.27
2022-08-03T08:15:10.136Z,23.30
2022-08-03T08:17:48.884Z,22.65
2022-08-03T08:20:27.049Z,22.45
2022-08-03T08:23:01.734Z,26.45
2022-08-03T08:25:31.424Z,17.30
2022-08-03T08:28:22.172Z,26.13
2022-08-03T08:30:49.881Z,23.33
2022-08-03T08:33:23.222Z,24.77
2022-08-03T08:35:53.306Z,20.23
2022-08-03T08:38:29.687Z,24.83
2022-08-03T08:40:57.774Z,28.08
2022-08-03T08:43:25.872Z,20.83
2022-08-03T08:45:55.685Z,25.75
2022-08-03T08:48:26.964Z,19.27
2022-08-03T08:50:56.009Z,24.35
2022-08-03T08:53:27.968Z,25.70
2022-08-03T08:56:00.305Z,26.52
2022-08-03T08:58:31.309Z,27.77
2022-08-03T09:00:59.822Z,27.48
2022-08-03T09:03:29.582Z,22.63
2022-08-03T09:06:00.440Z,27.77
2022-08-03T09:08:30.161Z,24.13
2022-08-03T09:10:58.320Z,22.52
2022-08-03T09:13:26.974Z,27.08
2022-08-03T09:16:10.778Z,25.27
2022-08-03T09:18:39.120Z,20.70
2022-08-03T09:21:31.254Z,21.33
2022-08-03T09:24:04.368Z,24.27
2022-08-03T09:26:34.645Z,22.25
2022-08-03T09:29:11.287Z,24.40
2022-08-03T09:31:43.500Z,26.10
2022-08-03T09:34:14.718Z,22.23
2022-08-03T09:36:44.546Z,17.60
2022-08-03T09:39:15.111Z,22.33
2022-08-03T09:41:44.378Z,25.45
2022-08-03T09:44:16.185Z,21.38
2022-08-03T09:46:57.189Z,22.90
2022-08-03T09:49:25.944Z,24.77
2022-08-03T09:52:33.997Z,24.73
2022-08-03T09:54:48.747Z,23.77
2022-08-03T09:57:24.512Z,21.55
2022-08-03T10:00:04.774Z,19.13
2022-08-03T10:02:36.710Z,33.05
2022-08-03T10:05:06.149Z,22.35
2022-08-03T10:07:46.163Z,16.77
2022-08-03T10:10:30.425Z,25.95
2022-08-03T10:16:23.486Z,21.75
2022-08-03T10:18:18.022Z,26.67
2022-08-03T10:20:50.068Z,21.00
2022-08-03T10:23:19.172Z,22.63
2022-08-03T10:25:52.130Z,26.70
2022-08-03T10:28:22.263Z,19.20
2022-08-03T10:30:52.417Z,26.98
2022-08-03T10:33:51.181Z,20.23
2022-08-03T10:36:10.553Z,21.50
2022-08-03T10:38:42.229Z,14.93
2022-08-03T10:41:12.548Z,19.92
2022-08-03T10:43:48.981Z,27.42
2022-08-03T10:46:17.473Z,24.00
2022-08-03T10:48:56.563Z,23.85
2022-08-03T10:51:30.456Z,21.70
2022-08-03T10:53:59.713Z,23.83
2022-08-03T10:57:13.648Z,23.08
2022-08-03T11:00:02.756Z,23.98
2022-08-03T11:03:10.591Z,13.65
2022-08-03T11:05:43.232Z,22.30
2022-08-03T11:08:30.741Z,31.55
2022-08-03T11:11:02.932Z,23.58
2022-08-03T11:13:33.891Z,27.42
2022-08-03T11:16:21.820Z,22.63
2022-08-03T11:18:59.583Z,18.67
2022-08-03T11:21:58.135Z,20.40
2022-08-03T11:25:02.884Z,22.10
2022-08-03T11:27:33.735Z,26.45
2022-08-03T11:30:08.660Z,20.65
2022-08-03T11:35:27.002Z,26.85
2022-08-03T11:38:11.556Z,22.05
2022-08-03T11:40:50.836Z,27.77
2022-08-03T11:43:47.469Z,20.83
2022-08-03T11:46:28.216Z,21.95
2022-08-03T11:49:10.455Z,21.52
2022-08-03T11:51:40.585Z,20.98
2022-08-03T11:54:11.398Z,23.67
2022-08-03T11:56:48.125Z,26.08
2022-08-03T11:59:21.751Z,21.35
2022-08-03T12:01:51.293Z,21.70
2022-08-03T12:04:20.620Z,19.67
2022-08-03T12:07:02.045Z,18.17
2022-08-03T12:09:34.467Z,21.25
2022-08-03T12:12:02.947Z,21.52
2022-08-03T12:14:48.861Z,19.73
2022-08-03T12:17:19.999Z,21.52
2022-08-03T12:19:48.476Z,17.70
2022-08-03T12:22:17.828Z,20.98
2022-08-03T12:24:47.919Z,24.30
2022-08-03T12:27:26.431Z,18.33
2022-08-03T12:29:58.334Z,19.02
2022-08-03T12:32:27.609Z,14.52
2022-08-03T12:35:00.129Z,13.48
2022-08-03T12:37:29.887Z,17.45
2022-08-03T12:40:09.551Z,17.05
2022-08-03T12:42:40.630Z,16.63
2022-08-03T12:45:23.960Z,13.48
2022-08-03T12:47:57.032Z,20.67
2022-08-03T12:50:28.478Z,15.32
2022-08-03T12:52:58.461Z,14.75
2022-08-03T12:55:57.586Z,13.68
2022-08-03T12:58:34.187Z,14.13
2022-08-03T13:01:09.208Z,12.27
2022-08-03T13:03:49.931Z,14.23
2022-08-03T13:06:22.378Z,12.18
2022-08-03T13:09:02.282Z,8.55
2022-08-03T13:11:55.966Z,12.27
2022-08-03T13:14:21.195Z,15.48
2022-08-03T13:16:50.474Z,15.85
2022-08-03T13:19:18.751Z,17.80
2022-08-03T13:22:03.138Z,10.88
2022-08-03T13:24:34.199Z,14.98
2022-08-03T13:28:01.270Z,10.40
2022-08-03T13:29:55.043Z,13.40
2022-08-03T13:32:24.900Z,14.63
2022-08-03T13:34:53.165Z,10.48
2022-08-03T13:37:23.951Z,15.30
2022-08-03T13:39:59.192Z,13.57
2022-08-03T13:42:32.432Z,19.33
2022-08-03T13:45:02.087Z,10.70
2022-08-03T13:47:30.644Z,12.95
2022-08-03T13:50:00.932Z,11.27
2022-08-03T13:52:32.991Z,8.30
2022-08-03T13:55:01.609Z,12.90
2022-08-03T13:58:04.378Z,9.88
2022-08-03T14:00:26.364Z,11.80
2022-08-03T14:03:16.406Z,11.73
2022-08-03T14:05:45.249Z,8.25
2022-08-03T14:08:13.792Z,12.90
2022-08-03T14:10:45.669Z,8.55
2022-08-03T14:13:17.732Z,9.50
2022-08-03T14:15:50.107Z,11.63
2022-08-03T14:18:29.013Z,9.18
2022-08-03T14:21:07.386Z,8.45
2022-08-03T14:23:38.490Z,6.43
2022-08-03T14:26:08.788Z,9.05
2022-08-03T14:28:38.763Z,8.50
2022-08-03T14:31:08.373Z,11.63
2022-08-03T14:33:46.969Z,8.77
2022-08-03T14:36:15.173Z,7.85
2022-08-03T14:38:43.369Z,9.35
2022-08-03T14:41:19.689Z,8.73
2022-08-03T14:44:01.563Z,5.97
2022-08-03T14:46:31.572Z,7.38
2022-08-03T14:50:33.075Z,7.35
2022-08-03T14:51:53.445Z,7.25
2022-08-03T14:54:23.199Z,7.60
2022-08-03T14:56:52.345Z,6.03
2022-08-03T14:59:21.913Z,7.68
2022-08-03T15:02:04.437Z,9.25
2022-08-03T15:04:34.899Z,7.30
2022-08-03T15:07:03.270Z,5.15
2022-08-03T15:09:31.683Z,8.32
2022-08-03T15:12:00.373Z,10.15
2022-08-03T15:14:33.140Z,10.48
2022-08-03T15:20:02.752Z,11.95
2022-08-03T15:22:24.828Z,13.13
2022-08-03T15:24:56.063Z,9.00
2022-08-03T15:27:24.553Z,7.00
2022-08-03T15:30:05.255Z,8.38
2022-08-03T15:32:38.529Z,3.75
2022-08-03T15:35:07.710Z,9.48
2022-08-03T15:37:36.112Z,11.27
2022-08-03T15:40:05.467Z,6.65
2022-08-03T15:42:34.618Z,7.03
2022-08-03T15:45:04.710Z,8.90
2022-08-03T15:47:33.025Z,8.73
2022-08-03T15:50:02.699Z,7.03
2022-08-03T15:52:35.972Z,9.23
2022-08-03T15:55:05.130Z,8.32
2022-08-03T15:59:04.203Z,7.68
2022-08-03T16:00:33.901Z,7.72
2022-08-03T16:03:02.522Z,6.43
2022-08-03T16:05:30.958Z,9.52
2022-08-03T16:08:03.822Z,7.68
2022-08-03T16:10:33.991Z,14.25
2022-08-03T16:13:02.325Z,7.15
2022-08-03T16:15:31.985Z,8.68
2022-08-03T16:18:00.727Z,5.88
2022-08-03T16:20:31.307Z,9.27
2022-08-03T16:23:11.545Z,8.32
2022-08-03T16:25:41.736Z,8.95
2022-08-03T16:28:14.642Z,10.73
2022-08-03T16:30:47.207Z,8.98
2022-08-03T16:33:17.827Z,9.45
2022-08-03T16:35:46.831Z,7.43
2022-08-03T16:38:18.899Z,6.85
2022-08-03T16:40:51.548Z,7.07
2022-08-03T16:43:22.039Z,10.60
2022-08-03T16:45:52.156Z,7.60
2022-08-03T16:48:21.210Z,9.77
2022-08-03T16:50:49.604Z,7.22
2022-08-03T16:53:33.227Z,4.82
2022-08-03T16:56:10.069Z,5.65
2022-08-03T16:58:42.274Z,6.63
2022-08-03T17:01:21.830Z,7.00
2022-08-03T17:04:01.475Z,9.55
2022-08-03T17:06:36.134Z,9.32
2022-08-03T17:09:09.107Z,7.55
2022-08-03T17:11:43.957Z,5.60
2022-08-03T17:14:14.338Z,8.63
2022-08-03T17:16:52.201Z,5.68
2022-08-03T17:19:24.628Z,5.80
2022-08-03T17:22:04.230Z,4.75
2022-08-03T17:24:35.112Z,6.85
2022-08-03T17:27:09.013Z,8.35
2022-08-03T17:29:45.782Z,5.72
2022-08-03T17:32:21.276Z,6.32
2022-08-03T17:37:50.205Z,8.80
2022-08-03T17:40:17.477Z,5.88
2022-08-03T17:42:50.525Z,9.30
2022-08-03T17:45:20.916Z,9.75
2022-08-03T17:47:57.083Z,10.93
2022-08-03T17:50:40.362Z,6.90
2022-08-03T17:53:15.174Z,8.32
2022-08-03T17:56:04.409Z,7.47
2022-08-03T17:58:54.591Z,5.53
2022-08-03T18:02:01.806Z,7.82
2022-08-03T18:04:43.256Z,9.70
2022-08-03T18:07:40.891Z,7.50
2022-08-03T18:10:15.242Z,7.22
2022-08-03T18:12:52.210Z,7.93
2022-08-03T18:15:30.262Z,6.55
2022-08-03T18:18:10.340Z,7.13
2022-08-03T18:20:42.685Z,5.25
2022-08-03T18:23:36.571Z,7.55
2022-08-03T18:26:07.071Z,8.68
2022-08-03T18:28:38.309Z,6.28
2022-08-03T18:31:07.773Z,6.28
2022-08-03T18:36:31.957Z,6.63
2022-08-03T18:39:04.386Z,8.93
2022-08-03T18:41:35.042Z,9.90
2022-08-03T18:44:06.643Z,5.40
2022-08-03T18:46:51.526Z,5.03
2022-08-03T18:49:35.384Z,5.88
2022-08-03T18:52:12.645Z,4.57
2022-08-03T18:55:02.523Z,7.68
2022-08-03T18:57:44.492Z,5.60
2022-08-03T19:00:24.120Z,6.40
2022-08-03T19:03:02.462Z,8.45
2022-08-03T19:06:02.240Z,7.60
2022-08-03T19:08:46.066Z,5.07
2022-08-03T19:11:28.037Z,9.30
2022-08-03T19:14:00.310Z,7.70
2022-08-03T19:16:38.653Z,11.90
2022-08-03T19:19:14.353Z,6.65
2022-08-03T19:24:14.841Z,9.20
2022-08-03T19:26:44.119Z,6.43
2022-08-03T19:29:18.769Z,7.93
2022-08-03T19:31:59.089Z,7.20
2022-08-03T19:34:32.621Z,7.68
2022-08-03T19:37:03.113Z,8.43
2022-08-03T19:39:33.602Z,9.23
2022-08-03T19:42:12.157Z,9.10
2022-08-03T19:45:11.243Z,9.98
2022-08-03T19:47:49.216Z,8.68
2022-08-03T19:50:19.092Z,7.10
2022-08-03T19:52:50.600Z,9.52
2022-08-03T19:55:20.574Z,7.10
2022-08-03T19:57:53.548Z,7.95
2022-08-03T20:00:30.487Z,6.65
2022-08-03T20:03:06.387Z,7.75
2022-08-03T20:05:52.142Z,9.90
2022-08-03T20:08:23.020Z,7.85
2022-08-03T20:10:53.769Z,6.05
2022-08-03T20:13:22.160Z,10.20
2022-08-03T20:15:56.810Z,9.13
2022-08-03T20:18:25.531Z,5.32
2022-08-03T20:20:58.729Z,5.32
2022-08-03T20:26:29.614Z,7.53
2022-08-03T20:29:08.970Z,8.25
2022-08-03T20:31:37.701Z,6.63
2022-08-03T20:34:07.388Z,11.13
2022-08-03T20:36:38.113Z,12.95
2022-08-03T20:39:07.722Z,9.85
2022-08-03T20:41:39.093Z,14.32
2022-08-03T20:44:07.926Z,10.95
2022-08-03T20:46:50.175Z,9.00
2022-08-03T20:49:24.723Z,6.93
2022-08-03T20:51:54.982Z,7.03
2022-08-03T20:54:29.500Z,7.07
2022-08-03T20:57:03.446Z,14.75
2022-08-03T20:59:50.641Z,6.82
2022-08-03T21:02:30.323Z,4.75
2022-08-03T21:05:03.424Z,11.13
2022-08-03T21:08:06.099Z,6.50
2022-08-03T21:10:39.831Z,6.45
2022-08-03T21:12:58.400Z,6.68
2022-08-03T21:13:06.784Z,4.43
2022-08-03T21:16:12.012Z,11.15
2022-08-03T21:18:47.047Z,8.05
2022-08-03T21:21:18.518Z,8.15
2022-08-03T21:23:52.532Z,9.10
2022-08-03T21:26:24.067Z,8.38
2022-08-03T21:28:56.343Z,7.97
2022-08-03T21:31:26.683Z,8.50
2022-08-03T21:33:57.798Z,12.50
2022-08-03T21:36:30.008Z,7.38
2022-08-03T21:39:00.476Z,10.05
2022-08-03T21:41:33.684Z,6.47
2022-08-03T21:44:06.162Z,11.05
2022-08-03T21:46:38.445Z,5.50
2022-08-03T21:50:04.785Z,12.18
2022-08-03T21:52:00.384Z,9.93
2022-08-03T21:54:35.105Z,6.00
2022-08-03T21:57:09.962Z,5.28
2022-08-03T21:59:45.624Z,8.38
2022-08-03T22:02:24.174Z,10.07
2022-08-03T22:04:56.970Z,6.35
2022-08-03T22:07:27.331Z,6.35
2022-08-03T22:09:57.147Z,9.80
2022-08-03T22:12:27.476Z,6.28
2022-08-03T22:15:00.783Z,9.35
2022-08-03T22:17:56.214Z,11.00
2022-08-03T22:20:21.268Z,9.63
2022-08-03T22:22:55.757Z,9.63
2022-08-03T22:25:29.866Z,9.68
2022-08-03T22:28:00.437Z,7.57
2022-08-03T22:30:31.574Z,9.82
2022-08-03T22:33:02.511Z,13.50
2022-08-03T22:35:44.348Z,12.60
2022-08-03T22:38:18.134Z,8.63
2022-08-03T22:40:49.889Z,7.45
2022-08-03T22:43:18.670Z,9.73
2022-08-03T22:46:09.464Z,8.98
2022-08-03T22:48:41.392Z,12.35
2022-08-03T22:51:10.339Z,12.20
2022-08-03T22:53:39.925Z,9.23
2022-08-03T22:56:08.864Z,8.68
2022-08-03T22:58:37.102Z,9.48
2022-08-03T23:01:08.940Z,12.30
2022-08-03T23:04:00.151Z,15.77
2022-08-03T23:06:35.939Z,8.15
2022-08-03T23:09:09.064Z,12.98
2022-08-03T23:11:45.417Z,12.38
2022-08-03T23:14:19.649Z,9.05
2022-08-03T23:16:51.372Z,12.23
2022-08-03T23:19:25.096Z,8.70
2022-08-03T23:22:02.913Z,12.93
2022-08-03T23:24:35.876Z,10.48
2022-08-03T23:27:06.362Z,9.40
2022-08-03T23:29:37.330Z,9.10
2022-08-03T23:32:08.720Z,8.35
2022-08-03T23:34:58.197Z,9.18
2022-08-03T23:37:27.033Z,6.70
2022-08-03T23:39:57.950Z,11.73
2022-08-03T23:42:27.936Z,11.50
2022-08-03T23:45:05.857Z,10.00
2022-08-03T23:47:45.981Z,7.72
2022-08-03T23:50:15.608Z,11.10
2022-08-03T23:53:01.061Z,12.52
2022-08-03T23:55:53.275Z,8.35
2022-08-03T23:58:41.618Z,7.15
